Time;durP1;ratioP1;P1;durP2;ratioP2;P2;SDS_P1;SDS_P2;PMS_P1;PMS_P2;Temp;Humidity;BMP_temperature;BMP_pressure;BME280_temperature;BME280_humidity;BME280_pressure;Samples;Min_cycle;Max_cycle;Signal;HPM_P1;HPM_P2
2023/03/14 00:01:50;;;;;;;2.85;1.00;;;11.40;99.90;;;;;;5022201;28;25081;-77
2023/03/14 00:04:17;;;;;;;2.72;0.93;;;11.40;99.90;;;;;;5039864;28;25074;-77
2023/03/14 00:06:46;;;;;;;3.55;0.85;;;11.40;99.90;;;;;;5039885;28;25065;-77
2023/03/14 00:09:14;;;;;;;3.97;0.90;;;11.30;99.90;;;;;;5039782;28;25069;-77
2023/03/14 00:11:41;;;;;;;4.57;1.63;;;11.30;99.90;;;;;;5039534;28;25089;-77
2023/03/14 00:14:08;;;;;;;3.05;0.70;;;11.20;99.90;;;;;;5039432;28;25114;-77
2023/03/14 00:16:36;;;;;;;1.98;0.63;;;11.20;99.90;;;;;;5039363;28;25122;-78
2023/03/14 00:19:03;;;;;;;2.85;1.08;;;11.20;99.90;;;;;;5039326;28;25073;-77
2023/03/14 00:21:30;;;;;;;4.40;0.82;;;11.20;99.90;;;;;;5039266;28;25058;-78
2023/03/14 00:23:58;;;;;;;7.25;1.55;;;11.20;99.90;;;;;;5039478;28;25067;-78
2023/03/14 00:26:25;;;;;;;3.00;1.08;;;11.30;99.90;;;;;;5021571;28;25069;-77
2023/03/14 00:28:54;;;;;;;4.30;1.08;;;11.20;99.90;;;;;;5021629;28;25106;-77
2023/03/14 00:31:21;;;;;;;5.88;1.23;;;11.30;99.90;;;;;;5039691;28;25071;-77
2023/03/14 00:33:48;;;;;;;3.65;0.85;;;11.30;99.90;;;;;;5021440;28;25089;-77
2023/03/14 00:36:17;;;;;;;3.28;0.88;;;11.30;99.90;;;;;;5039771;28;25091;-77
2023/03/14 00:38:50;;;;;;;3.17;0.90;;;11.40;99.90;;;;;;5038950;28;25071;-77
2023/03/14 00:41:20;;;;;;;1.95;0.80;;;11.40;99.90;;;;;;5039274;28;25108;-77
2023/03/14 00:43:47;;;;;;;3.88;0.90;;;11.40;99.90;;;;;;5021341;28;25071;-77
2023/03/14 00:46:15;;;;;;;2.83;0.90;;;11.40;99.90;;;;;;5039174;28;25054;-77
2023/03/14 00:48:44;;;;;;;9.43;1.30;;;11.30;99.90;;;;;;5038780;28;24893;-77
2023/03/14 00:51:14;;;;;;;6.35;1.15;;;11.30;99.90;;;;;;5039058;28;25105;-77
2023/03/14 00:53:42;;;;;;;6.00;1.27;;;11.20;99.90;;;;;;5038586;28;25101;-77
2023/03/14 00:56:12;;;;;;;8.07;1.23;;;11.20;99.90;;;;;;5038770;28;25056;-77
2023/03/14 00:58:39;;;;;;;6.93;1.27;;;11.30;99.90;;;;;;5038576;28;25081;-77
2023/03/14 01:01:09;;;;;;;3.55;1.00;;;11.20;99.90;;;;;;5037502;28;25071;-77
2023/03/14 01:03:36;;;;;;;3.00;0.95;;;11.20;99.90;;;;;;5020954;28;25058;-77
2023/03/14 01:06:13;;;;;;;6.32;1.08;;;11.20;99.90;;;;;;5038877;28;25072;-77
2023/03/14 01:08:41;;;;;;;3.33;0.98;;;11.10;99.90;;;;;;5021323;28;25078;-77
2023/03/14 01:11:15;;;;;;;1.75;0.60;;;11.10;99.90;;;;;;5020764;28;25069;-77
2023/03/14 01:13:42;;;;;;;5.10;1.05;;;11.00;99.90;;;;;;5038238;28;25105;-77
2023/03/14 01:16:12;;;;;;;3.80;1.10;;;11.00;99.90;;;;;;5020834;28;25075;-77
2023/03/14 01:18:41;;;;;;;4.03;1.00;;;11.00;99.90;;;;;;5038242;28;25075;-77
2023/03/14 01:21:18;;;;;;;7.13;1.15;;;11.00;99.90;;;;;;5038744;28;25084;-77
2023/03/14 01:23:47;;;;;;;5.93;1.38;;;11.00;99.90;;;;;;5038394;28;25119;-77
2023/03/14 01:26:18;;;;;;;5.55;0.95;;;11.00;99.90;;;;;;5038504;28;25065;-77
2023/03/14 01:28:46;;;;;;;5.57;1.80;;;11.00;99.90;;;;;;5038056;28;25052;-77
2023/03/14 01:31:13;;;;;;;4.20;1.42;;;11.00;99.90;;;;;;5020387;28;25051;-77
2023/03/14 01:33:41;;;;;;;3.85;0.98;;;11.00;99.90;;;;;;5037863;28;25093;-77
2023/03/14 01:36:09;;;;;;;4.50;0.95;;;11.00;99.90;;;;;;5038399;28;25046;-77
2023/03/14 01:38:38;;;;;;;1.73;0.60;;;11.00;99.90;;;;;;5038380;28;25107;-77
2023/03/14 01:41:07;;;;;;;6.15;1.63;;;11.00;99.90;;;;;;5020231;28;25101;-77
2023/03/14 01:43:34;;;;;;;6.20;1.25;;;11.10;99.90;;;;;;5037739;28;25054;-77
2023/03/14 01:46:08;;;;;;;2.28;1.00;;;11.00;99.90;;;;;;5038319;28;25088;-77
2023/03/14 01:48:53;;;;;;;3.42;0.88;;;11.00;99.90;;;;;;5038215;28;25066;-77
2023/03/14 01:51:36;;;;;;;5.13;1.17;;;11.00;99.90;;;;;;5038006;28;25076;-77
2023/03/14 01:54:19;;;;;;;3.60;0.95;;;10.90;99.90;;;;;;5019979;28;25046;-77
2023/03/14 01:57:19;;;;;;;5.20;1.45;;;10.90;99.90;;;;;;5037792;28;25072;-77
2023/03/14 01:59:54;;;;;;;2.53;0.55;;;10.80;99.90;;;;;;5028561;28;25082;-77
2023/03/14 02:02:24;;;;;;;3.13;0.80;;;10.80;99.90;;;;;;5037833;28;25067;-77
2023/03/14 02:04:52;;;;;;;3.45;0.98;;;10.80;99.90;;;;;;5037307;28;25062;-77
2023/03/14 02:07:57;;;;;;;4.95;0.70;;;10.80;99.90;;;;;;5037560;28;25105;-77
2023/03/14 02:10:30;;;;;;;3.45;0.75;;;10.80;99.90;;;;;;5016277;28;25123;-77
2023/03/14 02:13:00;;;;;;;4.40;0.82;;;10.80;99.90;;;;;;5036897;28;25123;-77
2023/03/14 02:15:27;;;;;;;3.58;0.80;;;10.80;99.90;;;;;;5037321;28;25069;-77
2023/03/14 02:17:55;;;;;;;6.13;0.95;;;10.80;99.90;;;;;;5037098;28;25112;-77
2023/03/14 02:21:17;;;;;;;2.63;0.73;;;10.80;99.90;;;;;;5037077;28;25070;-77
2023/03/14 02:24:08;;;;;;;3.60;1.00;;;10.90;99.90;;;;;;5014600;28;25106;-77
2023/03/14 02:27:12;;;;;;;3.85;1.00;;;10.90;99.90;;;;;;5019649;28;25157;-77
2023/03/14 02:29:47;;;;;;;4.45;0.88;;;11.00;99.90;;;;;;5019039;28;25060;-77
2023/03/14 02:32:17;;;;;;;4.03;1.00;;;11.00;99.90;;;;;;5036857;28;25107;-77
2023/03/14 02:34:48;;;;;;;3.42;0.77;;;11.00;99.90;;;;;;5037110;28;25072;-77
2023/03/14 02:37:19;;;;;;;6.32;1.00;;;11.00;99.90;;;;;;5036978;28;25062;-77
2023/03/14 02:39:49;;;;;;;5.07;1.05;;;11.00;99.90;;;;;;5036753;28;25067;-77
2023/03/14 02:42:17;;;;;;;2.28;0.63;;;10.90;99.90;;;;;;5036695;28;25106;-77
2023/03/14 02:45:01;;;;;;;4.63;1.48;;;10.90;99.90;;;;;;5036663;28;25054;-77
2023/03/14 02:47:30;;;;;;;3.95;0.82;;;10.90;99.90;;;;;;5036698;28;25068;-77
2023/03/14 02:50:13;;;;;;;5.18;0.77;;;10.90;99.90;;;;;;5036565;28;25472;-77
2023/03/14 02:52:40;;;;;;;3.83;0.73;;;10.80;99.90;;;;;;5036509;28;25132;-77
2023/03/14 02:55:09;;;;;;;5.32;0.70;;;10.90;99.90;;;;;;5036491;28;25072;-77
2023/03/14 02:57:36;;;;;;;3.95;0.98;;;10.90;99.90;;;;;;5036454;28;25082;-77
2023/03/14 03:00:05;;;;;;;3.22;0.70;;;10.90;99.90;;;;;;5036483;28;25057;-77
2023/03/14 03:02:32;;;;;;;2.13;0.88;;;10.80;99.90;;;;;;5018889;28;25134;-77
2023/03/14 03:04:59;;;;;;;3.92;1.15;;;10.80;99.90;;;;;;5018824;28;25067;-77
2023/03/14 03:07:27;;;;;;;1.38;0.45;;;10.90;99.90;;;;;;5036440;28;25049;-77
2023/03/14 03:09:54;;;;;;;3.53;1.02;;;10.90;99.90;;;;;;5036592;28;25069;-77
2023/03/14 03:12:21;;;;;;;3.80;0.65;;;10.80;99.90;;;;;;5036687;28;25053;-77
2023/03/14 03:14:48;;;;;;;3.28;0.70;;;10.80;99.90;;;;;;5036548;28;25112;-77
2023/03/14 03:17:16;;;;;;;4.70;0.57;;;10.70;99.90;;;;;;5036305;28;25144;-77
2023/03/14 03:19:43;;;;;;;2.80;1.00;;;10.50;99.90;;;;;;5018694;28;25089;-77
2023/03/14 03:22:11;;;;;;;3.75;0.60;;;10.10;99.90;;;;;;5036357;28;25060;-77
2023/03/14 03:24:38;;;;;;;4.10;0.80;;;9.70;99.90;;;;;;5037657;28;25127;-78
2023/03/14 03:27:06;;;;;;;1.20;0.77;;;9.40;99.90;;;;;;5040890;28;25070;-77
2023/03/14 03:29:33;;;;;;;3.38;0.60;;;9.20;99.90;;;;;;5040287;28;25075;-77
2023/03/14 03:32:01;;;;;;;3.03;0.80;;;9.00;99.90;;;;;;5040340;28;25071;-77
2023/03/14 03:34:29;;;;;;;3.58;0.43;;;8.90;99.90;;;;;;5040167;28;25071;-77
2023/03/14 03:36:59;;;;;;;3.22;0.50;;;8.80;99.90;;;;;;5023429;28;25097;-77
2023/03/14 03:39:27;;;;;;;1.75;0.30;;;8.70;99.90;;;;;;5040620;28;25082;-77
2023/03/14 03:41:54;;;;;;;3.10;0.30;;;8.60;99.90;;;;;;5022573;28;25066;-77
2023/03/14 03:44:21;;;;;;;0.35;0.30;;;8.60;99.90;;;;;;5040290;28;25071;-77
2023/03/14 03:46:48;;;;;;;1.23;0.35;;;8.50;99.90;;;;;;5040085;28;25073;-77
2023/03/14 03:49:16;;;;;;;0.63;0.20;;;8.50;99.90;;;;;;5040208;28;25066;-77
2023/03/14 03:51:43;;;;;;;0.98;0.10;;;8.40;99.90;;;;;;5022361;28;25070;-77
2023/03/14 03:54:10;;;;;;;3.72;0.75;;;8.40;99.90;;;;;;5040076;28;25050;-77
2023/03/14 03:56:38;;;;;;;3.67;0.20;;;8.40;99.90;;;;;;5039797;28;25114;-77
2023/03/14 03:59:05;;;;;;;0.65;0.20;;;8.40;99.90;;;;;;5039730;28;25147;-77
2023/03/14 04:01:32;;;;;;;1.17;0.28;;;8.40;99.90;;;;;;5039832;28;25123;-77
2023/03/14 04:03:59;;;;;;;0.15;0.10;;;8.40;99.90;;;;;;5039915;28;25076;-77
2023/03/14 04:06:27;;;;;;;2.58;0.30;;;8.40;99.90;;;;;;5022035;28;25119;-77
2023/03/14 04:08:55;;;;;;;0.75;0.20;;;8.40;99.90;;;;;;5039542;28;25077;-77
2023/03/14 04:11:22;;;;;;;1.55;0.60;;;8.50;99.90;;;;;;5039495;28;25047;-77
2023/03/14 04:13:49;;;;;;;2.28;0.45;;;8.50;99.90;;;;;;5021836;28;25068;-77
2023/03/14 04:16:22;;;;;;;0.47;0.30;;;8.50;99.90;;;;;;5039698;28;25051;-77
2023/03/14 04:18:50;;;;;;;3.38;0.43;;;8.60;99.90;;;;;;5021992;28;25080;-77
2023/03/14 04:21:18;;;;;;;3.35;0.80;;;8.60;99.90;;;;;;5039364;28;25096;-77
2023/03/14 04:23:45;;;;;;;4.00;0.60;;;8.60;99.90;;;;;;5039302;28;25132;-77
2023/03/14 04:26:12;;;;;;;1.40;0.40;;;8.60;99.90;;;;;;5039690;28;25083;-77
2023/03/14 04:28:40;;;;;;;2.45;0.43;;;8.60;99.90;;;;;;5021574;28;25056;-77
2023/03/14 04:31:10;;;;;;;4.22;0.50;;;8.70;99.90;;;;;;5039466;28;25086;-77
2023/03/14 04:33:37;;;;;;;3.78;0.73;;;8.70;99.90;;;;;;5039571;28;25082;-77
2023/03/14 04:36:06;;;;;;;6.05;0.65;;;8.80;99.90;;;;;;5021489;28;25058;-77
2023/03/14 04:38:33;;;;;;;5.03;0.77;;;8.80;99.90;;;;;;5039006;28;25127;-77
2023/03/14 04:41:00;;;;;;;5.60;0.75;;;8.80;99.90;;;;;;5039225;28;25076;-77
2023/03/14 04:43:28;;;;;;;1.20;0.50;;;8.80;99.90;;;;;;5038924;28;25114;-77
2023/03/14 04:45:57;;;;;;;4.28;1.23;;;8.80;99.90;;;;;;5038941;28;25067;-77
2023/03/14 04:48:25;;;;;;;3.83;0.70;;;8.80;99.90;;;;;;5038824;28;25113;-77
2023/03/14 04:50:58;;;;;;;2.13;0.50;;;8.80;99.90;;;;;;5022004;28;25074;-77
2023/03/14 04:53:26;;;;;;;5.10;0.60;;;8.80;99.90;;;;;;5038896;28;25109;-77
2023/03/14 04:55:55;;;;;;;2.67;0.52;;;8.80;99.90;;;;;;5038801;28;25063;-77
2023/03/14 04:58:24;;;;;;;2.95;0.47;;;8.80;99.90;;;;;;5038925;28;25071;-77
2023/03/14 05:00:51;;;;;;;2.33;0.38;;;8.70;99.90;;;;;;5038594;28;25137;-77
2023/03/14 05:03:19;;;;;;;1.63;0.65;;;8.70;99.90;;;;;;5020899;28;25079;-77
2023/03/14 05:05:46;;;;;;;1.80;0.38;;;8.60;99.90;;;;;;5021153;28;25074;-77
2023/03/14 05:08:14;;;;;;;5.88;0.95;;;8.50;99.90;;;;;;5038452;28;25133;-77
2023/03/14 05:10:41;;;;;;;2.95;0.50;;;8.50;99.90;;;;;;5038704;28;25120;-77
2023/03/14 05:13:08;;;;;;;4.78;0.60;;;8.50;99.90;;;;;;5020687;28;25058;-77
2023/03/14 05:15:36;;;;;;;3.60;0.57;;;8.50;99.90;;;;;;5038759;28;25100;-77
2023/03/14 05:18:04;;;;;;;6.40;0.85;;;8.50;99.90;;;;;;5020685;28;25093;-77
2023/03/14 05:20:31;;;;;;;3.55;0.60;;;8.50;99.90;;;;;;5038248;28;25104;-77
2023/03/14 05:22:58;;;;;;;4.80;1.17;;;8.50;99.90;;;;;;5038152;28;25081;-77
2023/03/14 05:25:26;;;;;;;8.07;0.80;;;8.50;99.90;;;;;;5038662;28;24936;-77
2023/03/14 05:27:57;;;;;;;4.93;0.98;;;8.50;99.90;;;;;;5020749;28;25078;-77
2023/03/14 05:30:27;;;;;;;4.40;0.70;;;8.40;99.90;;;;;;5038030;28;25113;-77
2023/03/14 05:32:55;;;;;;;2.63;0.68;;;8.40;99.90;;;;;;5037911;28;25078;-77
2023/03/14 05:35:23;;;;;;;1.25;0.40;;;8.40;99.90;;;;;;5038294;28;25055;-77
2023/03/14 05:37:50;;;;;;;1.20;0.60;;;8.40;99.90;;;;;;5038186;28;25107;-77
2023/03/14 05:40:17;;;;;;;5.60;0.77;;;8.40;99.90;;;;;;5038291;28;25058;-77
2023/03/14 05:42:45;;;;;;;4.90;0.40;;;8.40;99.90;;;;;;5038086;28;25058;-77
2023/03/14 05:45:12;;;;;;;3.88;0.40;;;8.40;99.90;;;;;;5020135;28;25126;-77
2023/03/14 05:47:39;;;;;;;3.47;0.50;;;8.50;99.90;;;;;;5039257;28;25077;-77
2023/03/14 05:50:10;;;;;;;8.70;0.80;;;8.60;99.90;;;;;;5038038;28;25119;-77
2023/03/14 05:52:38;;;;;;;2.13;0.57;;;8.70;99.90;;;;;;5037516;28;25096;-77
2023/03/14 05:55:06;;;;;;;3.88;0.82;;;8.70;99.90;;;;;;5037831;28;25122;-78
2023/03/14 05:57:33;;;;;;;1.52;0.60;;;8.70;99.90;;;;;;5038078;28;25078;-78
2023/03/14 06:00:00;;;;;;;2.30;0.82;;;8.70;99.90;;;;;;5019939;28;25069;-78
2023/03/14 06:02:28;;;;;;;3.40;1.30;;;8.70;99.90;;;;;;5037600;28;25116;-78
2023/03/14 06:04:56;;;;;;;2.95;0.85;;;8.70;99.90;;;;;;5037409;28;25062;-78
2023/03/14 06:07:23;;;;;;;4.97;0.52;;;8.60;99.90;;;;;;5037614;28;25062;-78
2023/03/14 06:09:51;;;;;;;4.90;0.70;;;8.60;99.90;;;;;;5037257;28;25058;-78
2023/03/14 06:12:18;;;;;;;5.57;0.90;;;8.60;99.90;;;;;;5037574;28;25061;-78
2023/03/14 06:14:46;;;;;;;1.33;0.57;;;8.60;99.90;;;;;;5019620;28;25051;-78
2023/03/14 06:17:14;;;;;;;1.45;0.43;;;8.60;99.90;;;;;;5037207;28;25095;-78
2023/03/14 06:19:41;;;;;;;4.30;1.15;;;8.50;99.90;;;;;;5019562;28;25086;-78
2023/03/14 06:22:09;;;;;;;1.33;0.40;;;8.50;99.90;;;;;;5037193;28;25056;-78
2023/03/14 06:24:36;;;;;;;2.50;0.32;;;8.50;99.90;;;;;;5019446;28;25052;-78
2023/03/14 06:27:03;;;;;;;3.15;1.02;;;8.40;99.90;;;;;;5019430;28;25085;-78
2023/03/14 06:29:31;;;;;;;3.30;1.20;;;8.40;99.90;;;;;;5036922;28;25045;-78
2023/03/14 06:31:58;;;;;;;2.28;0.50;;;8.40;99.90;;;;;;5019431;28;25106;-78
2023/03/14 06:34:26;;;;;;;3.20;0.50;;;8.40;99.90;;;;;;5036859;28;25050;-78
2023/03/14 06:36:53;;;;;;;1.85;0.70;;;8.50;99.90;;;;;;5019345;28;25113;-78
2023/03/14 06:39:21;;;;;;;4.53;0.88;;;8.40;99.90;;;;;;5019150;28;25054;-78
2023/03/14 06:41:48;;;;;;;6.90;0.90;;;8.40;99.90;;;;;;5019447;28;25044;-79
2023/03/14 06:44:15;;;;;;;5.72;0.90;;;8.40;99.90;;;;;;5019038;28;25091;-79
2023/03/14 06:46:43;;;;;;;1.58;0.65;;;8.40;99.90;;;;;;5026610;28;25127;-79
2023/03/14 06:49:10;;;;;;;3.78;0.52;;;8.40;99.90;;;;;;5056460;28;25134;-79
2023/03/14 06:51:41;;;;;;;2.67;0.77;;;8.40;99.90;;;;;;5056708;28;25098;-79
2023/03/14 06:54:09;;;;;;;1.77;0.50;;;8.30;99.90;;;;;;5056526;28;25143;-78
2023/03/14 06:56:37;;;;;;;4.78;0.73;;;8.30;99.90;;;;;;5056720;28;25115;-78
2023/03/14 06:59:04;;;;;;;0.95;0.40;;;8.30;99.90;;;;;;5055824;28;25085;-79
2023/03/14 07:01:34;;;;;;;2.30;0.75;;;8.40;99.90;;;;;;5056361;28;25060;-80
2023/03/14 07:04:03;;;;;;;1.42;0.40;;;8.40;99.90;;;;;;5056632;28;25086;-80
2023/03/14 07:06:30;;;;;;;4.43;0.80;;;8.60;99.90;;;;;;5055291;28;25052;-87
2023/03/14 07:08:57;;;;;;;6.80;1.13;;;8.60;99.90;;;;;;5056345;28;25080;-81
2023/03/14 07:11:24;;;;;;;2.90;1.02;;;8.70;99.90;;;;;;5056570;28;25078;-82
2023/03/14 07:13:51;;;;;;;5.40;1.65;;;8.80;99.90;;;;;;5056387;28;25104;-84
2023/03/14 07:16:19;;;;;;;4.57;0.98;;;8.90;99.90;;;;;;5055346;28;25045;-85
2023/03/14 07:18:46;;;;;;;3.63;1.45;;;8.90;99.90;;;;;;5055356;28;25076;-85
2023/03/14 07:21:14;;;;;;;3.95;0.75;;;9.10;99.90;;;;;;5055406;28;25067;-84
2023/03/14 07:23:41;;;;;;;2.90;1.10;;;9.20;99.90;;;;;;5055379;28;25095;-83
2023/03/14 07:26:09;;;;;;;2.88;0.80;;;9.30;99.90;;;;;;5056592;28;25143;-76
2023/03/14 07:28:36;;;;;;;3.38;0.80;;;9.30;99.90;;;;;;5056112;28;25065;-77
2023/03/14 07:31:04;;;;;;;4.95;0.90;;;9.30;99.90;;;;;;5056138;28;25072;-76
2023/03/14 07:33:32;;;;;;;3.22;0.70;;;9.30;99.90;;;;;;5055940;28;25073;-78
2023/03/14 07:36:00;;;;;;;3.47;0.73;;;9.30;99.90;;;;;;5056254;28;25081;-77
2023/03/14 07:38:28;;;;;;;3.95;0.50;;;9.20;99.90;;;;;;5054981;28;25111;-77
2023/03/14 07:41:06;;;;;;;0.98;0.40;;;9.10;99.90;;;;;;5056323;28;25035;-76
2023/03/14 07:43:34;;;;;;;4.28;0.45;;;9.00;99.90;;;;;;5055989;28;25077;-71
2023/03/14 07:46:01;;;;;;;0.98;0.50;;;8.90;99.90;;;;;;5056692;28;25075;-72
2023/03/14 07:48:29;;;;;;;1.10;0.38;;;8.90;99.90;;;;;;5036269;28;25121;-71
2023/03/14 07:50:57;;;;;;;1.65;0.63;;;8.90;99.90;;;;;;5035933;28;25056;-72
2023/03/14 07:53:25;;;;;;;1.95;0.45;;;8.90;99.90;;;;;;5036798;28;25121;-72
2023/03/14 07:55:54;;;;;;;5.75;1.05;;;8.90;99.90;;;;;;5036157;28;25064;-72
2023/03/14 07:58:22;;;;;;;3.22;0.82;;;8.90;99.90;;;;;;5035948;28;25137;-72
2023/03/14 08:00:50;;;;;;;4.97;1.00;;;9.00;99.90;;;;;;5036450;28;25064;-72
2023/03/14 08:03:18;;;;;;;9.77;1.42;;;9.00;99.90;;;;;;5036095;28;25096;-72
2023/03/14 08:05:49;;;;;;;3.60;0.73;;;9.10;99.90;;;;;;5036231;28;25070;-72
2023/03/14 08:08:17;;;;;;;3.65;1.10;;;9.10;99.90;;;;;;5035827;28;25066;-72
2023/03/14 08:10:44;;;;;;;4.55;1.20;;;9.30;99.90;;;;;;5037543;28;25056;-74
2023/03/14 08:13:12;;;;;;;4.60;1.20;;;9.40;99.90;;;;;;5039392;28;25055;-75
2023/03/14 08:15:39;;;;;;;4.65;1.52;;;9.40;99.90;;;;;;5021877;28;25075;-75
2023/03/14 08:18:06;;;;;;;4.63;1.42;;;9.50;99.90;;;;;;5021780;28;25075;-75
2023/03/14 08:20:35;;;;;;;11.40;5.53;;;9.50;99.90;;;;;;5021808;28;25050;-77
2023/03/14 08:23:02;;;;;;;5.43;1.80;;;9.60;99.90;;;;;;5039592;28;25135;-77
2023/03/14 08:25:29;;;;;;;7.72;2.33;;;9.70;99.90;;;;;;5021567;28;25089;-80
2023/03/14 08:27:57;;;;;;;3.35;1.73;;;9.80;99.90;;;;;;5021689;28;25119;-78
2023/03/14 08:30:24;;;;;;;1.92;0.90;;;9.80;99.90;;;;;;5039233;28;25104;-75
2023/03/14 08:32:52;;;;;;;2.95;0.70;;;9.90;99.90;;;;;;5039064;28;25108;-75
2023/03/14 08:35:20;;;;;;;8.60;1.13;;;10.00;99.90;;;;;;5039284;28;25079;-75
2023/03/14 08:37:47;;;;;;;4.50;0.73;;;10.10;99.90;;;;;;5021530;28;25143;-72
2023/03/14 08:40:16;;;;;;;2.53;0.77;;;10.20;99.90;;;;;;5039595;28;25128;-74
2023/03/14 08:42:44;;;;;;;6.95;0.60;;;10.30;99.90;;;;;;5038850;28;25106;-73
2023/03/14 08:45:16;;;;;;;1.63;0.40;;;10.40;99.90;;;;;;5039591;28;25063;-72
2023/03/14 08:47:44;;;;;;;4.88;0.60;;;10.40;99.90;;;;;;5038688;28;25109;-72
2023/03/14 08:50:12;;;;;;;2.25;0.50;;;10.50;99.90;;;;;;5021219;28;25062;-73
2023/03/14 08:52:43;;;;;;;0.45;0.20;;;10.60;99.90;;;;;;5021881;28;25116;-73
2023/03/14 08:55:11;;;;;;;1.40;1.02;;;10.60;99.90;;;;;;5039148;28;25054;-73
2023/03/14 08:57:39;;;;;;;0.90;0.32;;;10.60;99.90;;;;;;5038668;28;25071;-73
2023/03/14 09:00:16;;;;;;;2.33;0.50;;;10.70;99.90;;;;;;5039202;28;25055;-73
2023/03/14 09:02:44;;;;;;;0.60;0.20;;;10.80;99.90;;;;;;5038540;28;25077;-73
2023/03/14 09:05:13;;;;;;;2.75;0.35;;;10.90;99.90;;;;;;5039229;28;25103;-73
2023/03/14 09:07:41;;;;;;;1.23;0.20;;;11.10;99.90;;;;;;5038362;28;25083;-72
2023/03/14 09:10:09;;;;;;;0.43;0.10;;;11.10;99.90;;;;;;5020822;28;25059;-73
2023/03/14 09:12:37;;;;;;;1.30;0.32;;;11.10;99.90;;;;;;5038346;28;25055;-72
2023/03/14 09:15:06;;;;;;;0.68;0.30;;;11.10;99.90;;;;;;5038451;28;25093;-72
2023/03/14 09:17:33;;;;;;;1.73;0.30;;;11.10;99.90;;;;;;5038287;28;25062;-72
2023/03/14 09:20:01;;;;;;;0.88;0.32;;;11.20;99.90;;;;;;5038463;28;25082;-73
2023/03/14 09:22:28;;;;;;;0.98;0.40;;;11.30;99.90;;;;;;5019720;28;25106;-72
2023/03/14 09:24:56;;;;;;;1.30;0.40;;;11.30;99.90;;;;;;5038423;28;25065;-72
2023/03/14 09:27:23;;;;;;;0.15;0.10;;;11.30;99.90;;;;;;5038964;28;25060;-73
2023/03/14 09:29:50;;;;;;;1.80;0.45;;;11.30;99.90;;;;;;5020465;28;25093;-73
2023/03/14 09:32:17;;;;;;;3.72;0.30;;;11.30;99.90;;;;;;5038229;28;25068;-73
2023/03/14 09:34:44;;;;;;;1.35;0.30;;;11.30;99.90;;;;;;5037986;28;24949;-73
2023/03/14 09:37:11;;;;;;;0.68;0.30;;;11.20;99.90;;;;;;5038209;28;25061;-73
2023/03/14 09:39:38;;;;;;;1.17;0.30;;;11.10;99.90;;;;;;5038415;28;25068;-73
2023/03/14 09:42:14;;;;;;;0.82;0.28;;;11.10;99.90;;;;;;5037856;28;25069;-73
2023/03/14 09:45:06;;;;;;;1.77;0.50;;;11.10;99.90;;;;;;5038054;28;25070;-73
2023/03/14 09:47:34;;;;;;;0.40;0.20;;;11.10;99.90;;;;;;5041318;28;25155;-74
2023/03/14 09:50:03;;;;;;;0.70;0.20;;;11.10;99.90;;;;;;5057675;28;25098;-75
2023/03/14 09:52:39;;;;;;;0.65;0.30;;;11.00;99.90;;;;;;5056016;28;25075;-74
2023/03/14 09:55:26;;;;;;;0.30;0.20;;;11.00;99.90;;;;;;5058069;28;25058;-74
2023/03/14 09:58:00;;;;;;;0.30;0.20;;;11.10;99.90;;;;;;5057470;28;25074;-74
2023/03/14 10:00:30;;;;;;;0.20;0.20;;;11.20;99.90;;;;;;5058043;28;25054;-74
2023/03/14 10:03:22;;;;;;;0.57;0.28;;;11.40;99.90;;;;;;5056273;28;25120;-75
2023/03/14 10:05:49;;;;;;;2.38;0.77;;;11.70;99.90;;;;;;5058023;28;25086;-74
2023/03/14 10:08:17;;;;;;;0.85;0.20;;;11.90;99.90;;;;;;5056253;28;25053;-74
2023/03/14 10:10:44;;;;;;;0.35;0.20;;;12.10;99.90;;;;;;5057835;28;25057;-74
2023/03/14 10:13:25;;;;;;;0.68;0.20;;;12.20;99.90;;;;;;5057149;28;25124;-74
2023/03/14 10:16:09;;;;;;;0.63;0.30;;;12.20;99.90;;;;;;5057823;28;25062;-75
2023/03/14 10:18:37;;;;;;;0.28;0.20;;;12.10;99.90;;;;;;5057670;28;25057;-75
2023/03/14 10:21:21;;;;;;;0.22;0.20;;;11.90;99.90;;;;;;5056010;28;25124;-74
2023/03/14 10:23:49;;;;;;;0.22;0.13;;;11.90;99.90;;;;;;5057009;28;25061;-74
2023/03/14 10:26:19;;;;;;;0.30;0.20;;;12.00;99.90;;;;;;5057676;28;25060;-73
2023/03/14 10:29:02;;;;;;;1.83;0.40;;;12.10;99.90;;;;;;5056884;28;25100;-74
2023/03/14 10:31:54;;;;;;;0.50;0.30;;;12.10;99.90;;;;;;5057466;28;25144;-74
2023/03/14 10:34:27;;;;;;;0.82;0.30;;;12.00;99.90;;;;;;5056675;28;25078;-74
2023/03/14 10:36:59;;;;;;;0.25;0.20;;;11.80;99.90;;;;;;5056956;28;25053;-75
2023/03/14 10:39:53;;;;;;;2.30;0.32;;;11.60;99.90;;;;;;5057280;28;25108;-74
2023/03/14 10:42:46;;;;;;;0.80;0.45;;;11.40;99.90;;;;;;5054106;28;25053;-75
2023/03/14 10:45:32;;;;;;;0.82;0.50;;;11.40;99.90;;;;;;5056656;28;25129;-74
2023/03/14 10:48:15;;;;;;;0.63;0.38;;;11.40;99.90;;;;;;5055198;28;25088;-76
2023/03/14 10:51:05;;;;;;;1.30;0.57;;;11.40;99.90;;;;;;5056784;28;25064;-76
2023/03/14 10:53:56;;;;;;;0.57;0.40;;;11.40;99.90;;;;;;5056409;28;25047;-77
2023/03/14 10:56:26;;;;;;;0.57;0.28;;;11.30;99.90;;;;;;5056735;28;25068;-76
2023/03/14 10:58:59;;;;;;;0.65;0.30;;;11.30;99.90;;;;;;5056469;28;25128;-76
2023/03/14 11:01:38;;;;;;;0.25;0.20;;;11.40;99.90;;;;;;5055351;28;25058;-73
2023/03/14 11:04:14;;;;;;;2.13;0.30;;;11.50;99.90;;;;;;5056895;28;25073;-73
2023/03/14 11:07:02;;;;;;;0.63;0.30;;;11.50;99.90;;;;;;5056674;28;25068;-75
2023/03/14 11:09:57;;;;;;;1.13;0.70;;;11.50;99.90;;;;;;5056863;28;25062;-74
2023/03/14 11:12:49;;;;;;;0.63;0.35;;;11.30;99.90;;;;;;5056407;28;25090;-74
2023/03/14 11:15:42;;;;;;;1.17;0.43;;;11.10;99.90;;;;;;5056520;28;25074;-75
2023/03/14 11:18:31;;;;;;;0.85;0.32;;;10.80;99.90;;;;;;5056205;28;25081;-75
2023/03/14 11:21:17;;;;;;;2.50;0.50;;;10.40;99.90;;;;;;5056941;28;25099;-76
2023/03/14 11:24:02;;;;;;;1.50;0.10;;;9.90;99.90;;;;;;5056480;28;25078;-76
2023/03/14 11:26:49;;;;;;;0.40;0.20;;;9.50;99.90;;;;;;5056217;28;25063;-75
2023/03/14 11:29:32;;;;;;;0.20;0.10;;;9.00;99.90;;;;;;5056750;28;25105;-75
2023/03/14 11:32:04;;;;;;;0.10;0.10;;;8.60;99.90;;;;;;5056200;28;25067;-75
2023/03/14 11:34:53;;;;;;;0.13;0.10;;;8.20;99.90;;;;;;5056341;28;25100;-74
2023/03/14 11:37:43;;;;;;;0.85;0.20;;;7.80;99.90;;;;;;5056112;28;25060;-74
2023/03/14 11:40:21;;;;;;;0.50;0.10;;;7.70;99.90;;;;;;5056794;28;25058;-73
2023/03/14 11:43:26;;;;;;;0.35;0.10;;;7.40;99.90;;;;;;5054975;28;25153;-73
2023/03/14 11:46:05;;;;;;;0.45;0.10;;;7.20;99.90;;;;;;5055370;28;25101;-73
2023/03/14 11:48:57;;;;;;;0.47;0.13;;;7.00;99.90;;;;;;5060240;28;25134;-73
2023/03/14 11:51:30;;;;;;;0.40;0.10;;;6.90;99.90;;;;;;5060496;28;25075;-72
2023/03/14 11:54:19;;;;;;;0.25;0.17;;;6.80;99.90;;;;;;5059820;28;25045;-75
2023/03/14 11:56:52;;;;;;;0.30;0.10;;;6.60;99.90;;;;;;5060176;28;25068;-78
2023/03/14 11:59:47;;;;;;;1.35;0.20;;;6.40;99.90;;;;;;5059986;28;25071;-74
2023/03/14 12:02:27;;;;;;;1.17;0.20;;;6.20;99.90;;;;;;5058752;28;25060;-74
2023/03/14 12:05:13;;;;;;;0.10;0.10;;;5.90;99.90;;;;;;5059957;28;25100;-74
2023/03/14 12:08:04;;;;;;;0.95;0.10;;;5.80;99.90;;;;;;5058494;28;25069;-74
2023/03/14 12:10:39;;;;;;;0.03;0.03;;;5.70;99.90;;;;;;5059513;28;25073;-74
2023/03/14 12:13:10;;;;;;;0.07;0.00;;;5.60;99.90;;;;;;5059478;28;25112;-74
2023/03/14 12:15:47;;;;;;;0.30;0.00;;;5.40;99.90;;;;;;5059507;28;25135;-74
2023/03/14 12:18:32;;;;;;;0.10;0.00;;;5.20;99.90;;;;;;5059413;28;25069;-74
2023/03/14 12:21:10;;;;;;;0.00;0.00;;;5.00;99.90;;;;;;5058465;28;25078;-75
2023/03/14 12:23:44;;;;;;;0.00;0.00;;;5.00;99.90;;;;;;5059396;28;25121;-74
2023/03/14 12:26:20;;;;;;;0.10;0.08;;;4.80;99.90;;;;;;5059521;28;25111;-75
2023/03/14 12:29:17;;;;;;;0.43;0.10;;;4.80;99.90;;;;;;5059171;28;25088;-74
2023/03/14 12:31:48;;;;;;;0.22;0.10;;;4.80;99.90;;;;;;5059297;28;25118;-74
2023/03/14 12:34:15;;;;;;;1.45;0.20;;;4.80;99.90;;;;;;5059054;28;25080;-74
2023/03/14 12:36:49;;;;;;;0.22;0.22;;;4.80;99.90;;;;;;5059014;28;25066;-74
2023/03/14 12:39:43;;;;;;;0.40;0.10;;;4.80;99.90;;;;;;5059593;28;25096;-74
2023/03/14 12:42:29;;;;;;;0.10;0.10;;;4.80;99.90;;;;;;5059169;28;25079;-74
2023/03/14 12:45:27;;;;;;;2.10;0.30;;;4.90;99.90;;;;;;5057863;28;25121;-74
2023/03/14 12:48:19;;;;;;;1.00;0.30;;;5.00;99.90;;;;;;5043961;28;25057;-74
2023/03/14 12:51:02;;;;;;;2.25;0.40;;;5.10;99.90;;;;;;5039093;28;25062;-74
2023/03/14 12:53:34;;;;;;;3.22;1.50;;;5.10;99.90;;;;;;5038731;28;25082;-74
2023/03/14 12:56:11;;;;;;;2.17;1.00;;;5.10;99.90;;;;;;5039034;28;25111;-74
2023/03/14 12:59:03;;;;;;;3.60;0.50;;;5.00;99.90;;;;;;5038156;28;25123;-74
2023/03/14 13:01:35;;;;;;;4.32;0.60;;;5.10;99.90;;;;;;5020292;28;25085;-74
2023/03/14 13:04:13;;;;;;;5.63;1.90;;;5.10;99.90;;;;;;5038879;28;25136;-74
2023/03/14 13:06:59;;;;;;;10.60;3.88;;;5.20;99.90;;;;;;5038479;28;25122;-74
2023/03/14 13:09:33;;;;;;;1.45;0.43;;;5.30;99.90;;;;;;5020940;28;25060;-75
2023/03/14 13:12:14;;;;;;;6.72;1.42;;;5.30;99.90;;;;;;5038779;28;25085;-74
2023/03/14 13:14:49;;;;;;;8.07;1.58;;;5.40;99.90;;;;;;5038940;28;25126;-74
2023/03/14 13:17:33;;;;;;;7.53;0.60;;;5.50;99.90;;;;;;5038394;28;25076;-74
2023/03/14 13:20:11;;;;;;;10.52;1.70;;;5.50;99.90;;;;;;5038531;28;25066;-75